Time;durP1;ratioP1;P1;durP2;ratioP2;P2;SDS_P1;SDS_P2;PMS_P1;PMS_P2;Temp;Humidity;BMP_temperature;BMP_pressure;BME280_temperature;BME280_humidity;BME280_pressure;Samples;Min_cycle;Max_cycle;Signal;HPM_P1;HPM_P2
2023/10/30 00:01:25;;;;;;;2.20;1.03;;;13.20;1.00;;;;;;5105089;28;20178;-74
2023/10/30 00:03:52;;;;;;;6.20;1.33;;;13.20;1.00;;;;;;5099687;28;20406;-74
2023/10/30 00:06:17;;;;;;;2.40;1.00;;;13.20;1.00;;;;;;5106979;28;20239;-75
2023/10/30 00:08:43;;;;;;;7.70;1.07;;;13.20;1.00;;;;;;5100125;28;20883;-76
2023/10/30 00:11:08;;;;;;;3.10;1.00;;;13.20;1.00;;;;;;5107098;28;20178;-75
2023/10/30 00:13:34;;;;;;;2.13;1.00;;;13.20;1.00;;;;;;5108812;28;20199;-73
2023/10/30 00:15:59;;;;;;;2.13;0.80;;;13.10;1.00;;;;;;5098908;28;20556;-74
2023/10/30 00:18:25;;;;;;;1.80;1.00;;;13.10;1.00;;;;;;5108066;28;20611;-73
2023/10/30 00:20:50;;;;;;;2.23;1.10;;;13.20;1.00;;;;;;5096086;28;20172;-78
2023/10/30 00:23:16;;;;;;;1.30;0.80;;;11.80;1.00;;;;;;5098543;28;20182;-75
2023/10/30 00:25:41;;;;;;;2.13;0.90;;;13.10;1.00;;;;;;5108464;28;20190;-74
2023/10/30 00:28:07;;;;;;;1.77;0.97;;;13.10;1.00;;;;;;5106533;28;20206;-75
2023/10/30 00:30:33;;;;;;;2.17;1.00;;;13.10;1.00;;;;;;5100529;28;20219;-74
2023/10/30 00:32:58;;;;;;;1.10;0.90;;;13.30;1.00;;;;;;5106359;28;20183;-74
2023/10/30 00:35:24;;;;;;;2.60;1.00;;;13.10;1.00;;;;;;5108662;28;20199;-74
2023/10/30 00:37:50;;;;;;;2.03;1.00;;;13.10;1.00;;;;;;5098649;28;20202;-73
2023/10/30 00:40:15;;;;;;;1.87;0.90;;;13.10;1.00;;;;;;5092632;28;20911;-75
2023/10/30 00:42:41;;;;;;;2.97;1.00;;;13.10;1.00;;;;;;5112054;28;20187;-74
2023/10/30 00:45:07;;;;;;;1.90;1.00;;;13.10;1.00;;;;;;5111564;28;20653;-75
2023/10/30 00:47:38;;;;;;;1.00;0.80;;;13.00;1.00;;;;;;5102387;28;20199;-75
2023/10/30 00:50:04;;;;;;;2.00;1.07;;;13.30;1.00;;;;;;5107067;28;20474;-74
2023/10/30 00:52:30;;;;;;;2.70;0.90;;;13.00;1.00;;;;;;5106693;28;20416;-77
2023/10/30 00:54:55;;;;;;;1.20;0.80;;;13.00;1.00;;;;;;5108521;28;20460;-73
2023/10/30 00:57:22;;;;;;;6.30;1.13;;;13.00;1.00;;;;;;5111873;28;20210;-76
2023/10/30 00:59:48;;;;;;;3.80;1.10;;;13.00;1.00;;;;;;5111945;28;20217;-74
2023/10/30 01:02:13;;;;;;;2.23;1.00;;;13.00;1.00;;;;;;5104435;28;20448;-73
2023/10/30 01:04:39;;;;;;;1.43;0.90;;;13.00;1.00;;;;;;5107244;28;20168;-73
2023/10/30 01:07:04;;;;;;;1.40;1.00;;;13.00;1.00;;;;;;5109709;28;20794;-77
2023/10/30 01:09:30;;;;;;;1.50;1.03;;;13.00;1.00;;;;;;5098780;28;20259;-74
2023/10/30 01:11:55;;;;;;;7.13;1.00;;;13.00;1.00;;;;;;5094065;28;20184;-76
2023/10/30 01:14:21;;;;;;;2.10;1.00;;;12.80;1.00;;;;;;5099446;28;20218;-75
2023/10/30 01:16:49;;;;;;;1.50;0.90;;;12.90;1.00;;;;;;5095804;28;20233;-77
2023/10/30 01:19:14;;;;;;;2.50;0.83;;;12.90;1.00;;;;;;5096496;28;20661;-73
2023/10/30 01:21:40;;;;;;;5.23;0.90;;;13.00;1.00;;;;;;5102795;28;20546;-74
2023/10/30 01:24:06;;;;;;;1.40;0.80;;;12.90;1.00;;;;;;5101009;28;20534;-74
2023/10/30 01:26:32;;;;;;;3.93;1.20;;;12.90;1.00;;;;;;5108035;28;20199;-77
2023/10/30 01:28:57;;;;;;;4.43;0.90;;;12.90;1.00;;;;;;5109469;28;20194;-76
2023/10/30 01:31:27;;;;;;;1.23;0.93;;;12.90;1.00;;;;;;5107734;28;20175;-75
2023/10/30 01:33:53;;;;;;;4.40;1.00;;;12.80;1.00;;;;;;5110576;28;20267;-72
2023/10/30 01:36:19;;;;;;;1.90;1.07;;;12.80;1.00;;;;;;5106981;28;20460;-74
2023/10/30 01:38:44;;;;;;;2.97;1.20;;;12.80;1.00;;;;;;5101310;28;20456;-74
2023/10/30 01:41:10;;;;;;;1.20;0.93;;;12.80;1.00;;;;;;5100701;28;20255;-72
2023/10/30 01:43:35;;;;;;;2.90;0.90;;;12.70;1.00;;;;;;5098952;28;20730;-74
2023/10/30 01:46:01;;;;;;;3.60;1.10;;;12.80;1.00;;;;;;5099131;28;20190;-74
2023/10/30 01:48:30;;;;;;;3.30;1.10;;;12.80;1.00;;;;;;5099101;28;20187;-79
2023/10/30 01:50:57;;;;;;;4.80;1.00;;;12.70;1.00;;;;;;5094608;28;20183;-74
2023/10/30 01:53:23;;;;;;;2.20;1.10;;;12.70;1.00;;;;;;5093461;28;20469;-77
2023/10/30 01:55:50;;;;;;;2.10;1.07;;;12.70;1.00;;;;;;5109056;28;20457;-75
2023/10/30 01:58:16;;;;;;;5.23;1.20;;;12.70;1.00;;;;;;5107874;28;20187;-75
2023/10/30 02:00:42;;;;;;;1.87;0.97;;;12.70;1.00;;;;;;5111139;28;20706;-74
2023/10/30 02:03:07;;;;;;;3.67;1.20;;;12.70;1.00;;;;;;5110563;28;20452;-76
2023/10/30 02:05:33;;;;;;;4.67;1.07;;;12.60;1.00;;;;;;5107340;28;20625;-76
2023/10/30 02:07:58;;;;;;;1.87;1.07;;;12.50;1.00;;;;;;5104020;28;20285;-74
2023/10/30 02:10:24;;;;;;;3.03;1.20;;;12.60;1.00;;;;;;5110118;28;20175;-74
2023/10/30 02:12:50;;;;;;;4.33;1.20;;;12.50;1.00;;;;;;5106024;28;20199;-73
2023/10/30 02:15:16;;;;;;;6.47;1.00;;;12.50;1.00;;;;;;5103912;28;20203;-75
2023/10/30 02:17:42;;;;;;;1.30;1.00;;;12.50;1.00;;;;;;5101524;28;20441;-73
2023/10/30 02:20:08;;;;;;;3.70;1.33;;;12.40;1.00;;;;;;5094280;28;20160;-76
2023/10/30 02:22:34;;;;;;;3.43;1.10;;;12.40;1.00;;;;;;5097391;28;20463;-73
2023/10/30 02:24:59;;;;;;;4.20;1.23;;;12.40;1.00;;;;;;5093563;28;20468;-73
2023/10/30 02:27:25;;;;;;;5.93;1.17;;;12.30;1.00;;;;;;5106249;28;20187;-74
2023/10/30 02:29:50;;;;;;;2.17;1.40;;;12.30;1.00;;;;;;5108326;28;20199;-77
2023/10/30 02:32:16;;;;;;;3.07;1.67;;;12.30;1.00;;;;;;5101091;28;20183;-75
2023/10/30 02:34:41;;;;;;;4.17;1.50;;;12.30;1.00;;;;;;5097303;28;20653;-72
2023/10/30 02:37:07;;;;;;;4.60;1.00;;;12.30;1.00;;;;;;5097723;28;20195;-75
2023/10/30 02:39:34;;;;;;;1.10;0.90;;;;;;;;;;5096540;28;20184;-75
2023/10/30 02:42:01;;;;;;;2.30;1.10;;;12.30;1.00;;;;;;5104516;28;20171;-73
2023/10/30 02:44:28;;;;;;;1.90;1.00;;;12.30;1.00;;;;;;5096093;28;20418;-73
2023/10/30 02:46:54;;;;;;;3.83;1.20;;;12.30;1.00;;;;;;5090956;28;20446;-76
2023/10/30 02:49:20;;;;;;;5.93;1.10;;;12.30;1.00;;;;;;5092671;28;20450;-75
2023/10/30 02:51:46;;;;;;;1.43;0.90;;;12.30;1.00;;;;;;5095136;28;20494;-75
2023/10/30 02:54:11;;;;;;;8.73;1.23;;;12.30;1.00;;;;;;5102446;28;20191;-74
2023/10/30 02:56:37;;;;;;;2.03;0.80;;;15.20;1.00;;;;;;5101879;28;20199;-74
2023/10/30 02:59:02;;;;;;;3.87;1.10;;;12.30;1.00;;;;;;5108644;28;20191;-74
2023/10/30 03:01:28;;;;;;;3.30;0.83;;;12.30;1.00;;;;;;5109139;28;20177;-71
2023/10/30 03:03:54;;;;;;;3.27;1.13;;;12.30;1.00;;;;;;5106489;28;20182;-75
2023/10/30 03:06:20;;;;;;;1.57;0.93;;;12.30;1.00;;;;;;5105319;28;20437;-74
2023/10/30 03:08:45;;;;;;;6.20;1.40;;;12.30;1.00;;;;;;5102479;28;20186;-74
2023/10/30 03:11:11;;;;;;;2.17;0.80;;;12.30;1.00;;;;;;5108964;28;20175;-73
2023/10/30 03:13:36;;;;;;;7.53;1.00;;;12.30;1.00;;;;;;5109378;28;20175;-74
2023/10/30 03:16:02;;;;;;;1.40;0.90;;;12.30;1.00;;;;;;5109113;28;20288;-74
2023/10/30 03:18:28;;;;;;;7.03;1.30;;;12.30;1.00;;;;;;5106278;28;20178;-74
2023/10/30 03:20:53;;;;;;;1.20;0.70;;;12.30;1.00;;;;;;5106446;28;20413;-73
2023/10/30 03:23:20;;;;;;;1.97;0.90;;;12.30;1.00;;;;;;5089811;28;20630;-76
2023/10/30 03:25:46;;;;;;;4.80;1.10;;;12.30;1.00;;;;;;5100801;28;20171;-74
2023/10/30 03:28:11;;;;;;;1.73;1.03;;;12.30;1.00;;;;;;5108475;28;20531;-74
2023/10/30 03:30:37;;;;;;;3.53;0.80;;;12.30;1.00;;;;;;5106992;28;20503;-73
2023/10/30 03:33:04;;;;;;;2.07;0.90;;;12.20;1.00;;;;;;5106448;28;20199;-71
2023/10/30 03:35:30;;;;;;;4.50;1.27;;;12.30;1.00;;;;;;5106288;28;20199;-76
2023/10/30 03:37:56;;;;;;;3.00;1.10;;;12.30;1.00;;;;;;5106097;28;20483;-75
2023/10/30 03:40:21;;;;;;;1.80;1.00;;;12.20;1.00;;;;;;5100221;28;20496;-72
2023/10/30 03:42:47;;;;;;;2.40;1.00;;;12.10;1.00;;;;;;5102028;28;20594;-74
2023/10/30 03:45:13;;;;;;;1.47;0.90;;;12.30;1.00;;;;;;5106116;28;20205;-73
2023/10/30 03:47:39;;;;;;;1.87;0.93;;;12.30;1.00;;;;;;5108652;28;20202;-74
2023/10/30 03:50:06;;;;;;;1.87;1.10;;;12.30;1.00;;;;;;5105163;28;20417;-75
2023/10/30 03:52:31;;;;;;;3.07;1.00;;;12.30;1.00;;;;;;5099644;28;20416;-73
2023/10/30 03:55:03;;;;;;;1.23;0.87;;;12.30;1.00;;;;;;5105883;28;20454;-75
2023/10/30 03:57:29;;;;;;;1.20;0.93;;;12.20;1.00;;;;;;5107605;28;20191;-75
2023/10/30 03:59:55;;;;;;;1.00;0.73;;;12.20;1.00;;;;;;5106471;28;20416;-73
2023/10/30 04:02:21;;;;;;;5.03;1.10;;;12.20;1.00;;;;;;5106066;28;20413;-77
2023/10/30 04:04:47;;;;;;;4.07;1.10;;;12.20;1.00;;;;;;5108658;28;20688;-76
2023/10/30 04:07:13;;;;;;;1.47;0.90;;;12.20;1.00;;;;;;5108101;28;20471;-75
2023/10/30 04:09:38;;;;;;;1.10;0.80;;;12.20;1.00;;;;;;5097337;28;20194;-73
2023/10/30 04:12:04;;;;;;;3.00;0.90;;;12.20;1.00;;;;;;5100523;28;20184;-74
2023/10/30 04:14:31;;;;;;;2.93;1.13;;;12.30;1.00;;;;;;5107591;28;20175;-74
2023/10/30 04:16:57;;;;;;;2.43;0.80;;;12.20;1.00;;;;;;5111443;28;20202;-74
2023/10/30 04:19:23;;;;;;;3.00;0.90;;;12.20;1.00;;;;;;5110167;28;20492;-71
2023/10/30 04:21:48;;;;;;;1.83;1.10;;;12.20;1.00;;;;;;5099205;28;21015;-75
2023/10/30 04:24:14;;;;;;;6.70;1.20;;;12.20;1.00;;;;;;5112684;28;20683;-77
2023/10/30 04:26:39;;;;;;;2.13;1.00;;;12.30;1.00;;;;;;5095556;28;20203;-74
2023/10/30 04:29:05;;;;;;;4.10;1.00;;;12.30;1.00;;;;;;5110171;28;20183;-75
2023/10/30 04:31:30;;;;;;;2.80;1.03;;;12.30;1.00;;;;;;5107621;28;20649;-75
2023/10/30 04:33:56;;;;;;;1.30;0.90;;;12.30;1.00;;;;;;5112491;28;20205;-76
2023/10/30 04:36:21;;;;;;;1.53;0.83;;;12.30;1.00;;;;;;5111636;28;20285;-75
2023/10/30 04:38:49;;;;;;;12.40;1.30;;;12.30;1.00;;;;;;5112180;28;20179;-74
2023/10/30 04:41:15;;;;;;;4.40;1.07;;;12.30;1.00;;;;;;5109427;28;20182;-74
2023/10/30 04:43:41;;;;;;;2.80;0.90;;;12.30;1.00;;;;;;5102463;28;20409;-76
2023/10/30 04:46:06;;;;;;;2.00;0.90;;;12.30;1.00;;;;;;5108038;28;20207;-76
2023/10/30 04:48:32;;;;;;;2.00;0.90;;;12.30;1.00;;;;;;5111852;28;20313;-76
2023/10/30 04:50:59;;;;;;;1.10;0.80;;;12.30;1.00;;;;;;5102854;28;20189;-76
2023/10/30 04:53:25;;;;;;;5.67;1.10;;;12.30;1.00;;;;;;5100124;28;20222;-76
2023/10/30 04:55:51;;;;;;;2.00;1.07;;;12.30;1.00;;;;;;5098147;28;20519;-75
2023/10/30 04:58:17;;;;;;;3.17;0.90;;;12.30;1.00;;;;;;5096413;28;20199;-75
2023/10/30 05:00:42;;;;;;;3.00;1.00;;;12.20;1.00;;;;;;5104071;28;20507;-74
2023/10/30 05:03:09;;;;;;;1.50;0.90;;;12.30;1.00;;;;;;5103122;28;20759;-76
2023/10/30 05:05:36;;;;;;;2.80;1.30;;;12.30;1.00;;;;;;5098881;28;20186;-75
2023/10/30 05:08:02;;;;;;;4.77;1.30;;;12.30;1.00;;;;;;5111536;28;20548;-74
2023/10/30 05:10:27;;;;;;;4.47;1.60;;;12.30;1.00;;;;;;5109658;28;20473;-77
2023/10/30 05:12:53;;;;;;;2.13;1.10;;;12.30;1.00;;;;;;5105211;28;20175;-74
2023/10/30 05:15:21;;;;;;;1.33;1.00;;;12.30;1.00;;;;;;5111523;28;20661;-74
2023/10/30 05:17:46;;;;;;;2.60;1.00;;;12.30;1.00;;;;;;5100964;28;20191;-77
2023/10/30 05:20:12;;;;;;;2.30;0.80;;;12.30;1.00;;;;;;5106423;27;20449;-77
2023/10/30 05:22:38;;;;;;;1.00;0.80;;;12.30;1.00;;;;;;5109965;28;20538;-71
2023/10/30 05:25:05;;;;;;;5.23;1.00;;;12.30;1.00;;;;;;5111161;28;20545;-74
2023/10/30 05:27:31;;;;;;;2.27;0.70;;;12.30;1.00;;;;;;5110430;28;20523;-76
2023/10/30 05:29:57;;;;;;;1.70;1.00;;;12.30;1.00;;;;;;5111079;28;20429;-77
2023/10/30 05:32:23;;;;;;;1.30;0.80;;;12.30;1.00;;;;;;5107667;28;20425;-78
2023/10/30 05:34:48;;;;;;;1.90;1.10;;;12.30;1.00;;;;;;5111059;28;20189;-75
2023/10/30 05:37:15;;;;;;;2.50;1.53;;;12.30;1.00;;;;;;5105691;28;20196;-74
2023/10/30 05:39:41;;;;;;;11.73;3.67;;;12.30;1.00;;;;;;5105675;28;20201;-75
2023/10/30 05:42:06;;;;;;;15.00;5.50;;;12.40;1.00;;;;;;5102230;28;20661;-74
2023/10/30 05:44:32;;;;;;;16.03;6.57;;;12.40;1.00;;;;;;5109379;28;20537;-74
2023/10/30 05:46:58;;;;;;;20.30;7.87;;;12.40;1.00;;;;;;5103641;28;20203;-76
2023/10/30 05:49:27;;;;;;;19.80;8.33;;;12.50;1.00;;;;;;5108719;28;21201;-77
2023/10/30 05:51:53;;;;;;;5.50;1.87;;;12.50;1.00;;;;;;5100276;28;20471;-76
2023/10/30 05:54:19;;;;;;;3.47;2.23;;;12.50;1.00;;;;;;5101266;28;20459;-72
2023/10/30 05:56:45;;;;;;;3.90;2.40;;;12.60;1.00;;;;;;5110494;28;20492;-76
2023/10/30 05:59:10;;;;;;;3.33;2.43;;;12.60;1.00;;;;;;5108196;28;20190;-74
2023/10/30 06:01:36;;;;;;;4.00;2.30;;;12.60;1.00;;;;;;5100938;28;20230;-73
2023/10/30 06:04:02;;;;;;;5.47;1.97;;;12.60;1.00;;;;;;5110750;28;20187;-73
2023/10/30 06:06:27;;;;;;;3.27;2.10;;;12.60;1.00;;;;;;5110006;28;20298;-73
2023/10/30 06:08:53;;;;;;;3.83;1.83;;;12.70;1.00;;;;;;5110618;28;20492;-72
2023/10/30 06:11:19;;;;;;;5.80;1.80;;;12.70;1.00;;;;;;5098021;28;20550;-75
2023/10/30 06:13:44;;;;;;;7.60;1.57;;;12.70;1.00;;;;;;5109396;28;20700;-73
2023/10/30 06:16:18;;;;;;;6.90;2.00;;;12.70;1.00;;;;;;5102703;28;20195;-72
2023/10/30 06:18:47;;;;;;;8.77;3.53;;;12.70;1.00;;;;;;5104009;28;20522;-73
2023/10/30 06:21:16;;;;;;;5.83;3.10;;;12.70;1.00;;;;;;5094894;27;20418;-71
2023/10/30 06:23:42;;;;;;;5.93;3.07;;;12.70;1.00;;;;;;5108760;28;20408;-75
2023/10/30 06:26:12;;;;;;;3.43;1.83;;;12.80;1.00;;;;;;5106509;28;20413;-74
2023/10/30 06:28:39;;;;;;;2.60;1.67;;;12.80;1.00;;;;;;5103090;28;20270;-73
2023/10/30 06:31:15;;;;;;;4.20;1.70;;;12.80;1.00;;;;;;5107296;28;20506;-73
2023/10/30 06:33:41;;;;;;;2.60;2.03;;;12.70;1.00;;;;;;5102814;28;20469;-75
2023/10/30 06:36:07;;;;;;;3.73;1.67;;;12.60;1.00;;;;;;5104896;27;20508;-74
2023/10/30 06:38:33;;;;;;;2.90;1.50;;;12.60;1.00;;;;;;5106946;28;20444;-74
2023/10/30 06:40:59;;;;;;;4.70;1.63;;;12.70;1.00;;;;;;5103018;28;20216;-73
2023/10/30 06:43:25;;;;;;;2.97;1.80;;;12.70;1.00;;;;;;5092918;28;20501;-74
2023/10/30 06:46:04;;;;;;;1.93;1.37;;;12.70;1.00;;;;;;5091862;28;20186;-73
2023/10/30 06:48:30;;;;;;;2.13;1.23;;;12.70;1.00;;;;;;5089835;28;20176;-74
2023/10/30 06:50:56;;;;;;;2.00;1.30;;;12.70;1.00;;;;;;5088954;28;20402;-73
2023/10/30 06:53:22;;;;;;;2.13;1.57;;;12.70;1.00;;;;;;5088592;28;20418;-75
2023/10/30 06:55:48;;;;;;;1.40;1.30;;;12.70;1.00;;;;;;5088298;28;20808;-74
2023/10/30 06:58:14;;;;;;;2.40;1.43;;;12.80;1.00;;;;;;5088758;28;20950;-73
2023/10/30 07:00:40;;;;;;;4.60;1.50;;;12.80;1.00;;;;;;5088928;28;20414;-75
2023/10/30 07:03:05;;;;;;;1.63;1.43;;;12.90;1.00;;;;;;5093985;28;20186;-72
2023/10/30 07:05:31;;;;;;;3.70;2.10;;;12.80;1.00;;;;;;5091243;28;20182;-71
2023/10/30 07:07:56;;;;;;;2.80;1.80;;;12.80;1.00;;;;;;5096295;28;20201;-73
2023/10/30 07:10:22;;;;;;;2.63;1.73;;;12.80;1.00;;;;;;5100526;28;20355;-73
2023/10/30 07:12:47;;;;;;;3.37;1.63;;;12.90;1.00;;;;;;5091990;28;20584;-75
2023/10/30 07:15:13;;;;;;;2.13;1.43;;;12.90;1.00;;;;;;5102708;28;20314;-74
2023/10/30 07:17:39;;;;;;;3.20;1.60;;;12.90;1.00;;;;;;5096001;28;20245;-74
2023/10/30 07:20:05;;;;;;;1.80;1.20;;;12.90;1.00;;;;;;5101515;28;20258;-75
2023/10/30 07:22:30;;;;;;;2.00;1.00;;;12.80;1.00;;;;;;5102126;28;20503;-75
2023/10/30 07:24:56;;;;;;;3.53;1.10;;;11.20;1.00;;;;;;5098640;28;20379;-78
2023/10/30 07:27:22;;;;;;;1.60;1.17;;;12.90;1.00;;;;;;5091525;28;20898;-73
2023/10/30 07:29:48;;;;;;;2.60;1.40;;;12.90;1.00;;;;;;5101523;28;20199;-73
2023/10/30 07:32:14;;;;;;;1.97;1.50;;;13.00;1.00;;;;;;5096284;28;20417;-73
2023/10/30 07:34:40;;;;;;;7.77;1.60;;;13.10;1.00;;;;;;5097397;28;20205;-71
2023/10/30 07:37:06;;;;;;;2.63;1.40;;;13.30;1.00;;;;;;5100029;28;20473;-74
2023/10/30 07:39:32;;;;;;;2.43;1.57;;;13.40;1.00;;;;;;5102532;28;20850;-76
2023/10/30 07:41:58;;;;;;;3.30;1.30;;;13.40;1.00;;;;;;5101275;28;20231;-74
2023/10/30 07:44:23;;;;;;;2.20;1.30;;;13.30;1.00;;;;;;5099492;28;20588;-73
2023/10/30 07:46:49;;;;;;;3.87;1.30;;;13.30;1.00;;;;;;5094050;28;20195;-74
2023/10/30 07:49:14;;;;;;;1.70;1.30;;;13.30;1.00;;;;;;5090612;28;20178;-71
2023/10/30 07:51:40;;;;;;;2.37;1.50;;;13.40;1.00;;;;;;5090603;28;20172;-74
2023/10/30 07:54:06;;;;;;;4.47;1.80;;;13.70;1.00;;;;;;5059714;28;20191;-71
2023/10/30 07:56:35;;;;;;;1.73;1.37;;;14.00;1.00;;;;;;5091103;28;20670;-72
2023/10/30 07:59:01;;;;;;;3.60;2.10;;;13.80;1.00;;;;;;5095540;28;20203;-70
2023/10/30 08:01:27;;;;;;;2.17;1.50;;;;;;;;;;5101642;28;20433;-72
2023/10/30 08:03:53;;;;;;;3.73;1.40;;;14.10;1.00;;;;;;5090714;28;20214;-70
2023/10/30 08:06:18;;;;;;;3.23;1.30;;;14.30;1.00;;;;;;5088063;28;20472;-69
2023/10/30 08:08:44;;;;;;;2.43;1.20;;;14.40;1.00;;;;;;5093174;28;20191;-72
2023/10/30 08:11:09;;;;;;;3.13;1.30;;;14.40;1.00;;;;;;5096043;28;20194;-71
2023/10/30 08:13:35;;;;;;;2.43;1.10;;;14.20;1.00;;;;;;5092184;28;20199;-73
2023/10/30 08:16:01;;;;;;;1.20;0.90;;;;;;;;;;5096401;28;20264;-71
2023/10/30 08:18:27;;;;;;;1.30;0.97;;;14.10;1.00;;;;;;5100009;28;20172;-73
2023/10/30 08:20:53;;;;;;;1.90;1.07;;;14.10;1.00;;;;;;5099168;28;20428;-70
2023/10/30 08:23:18;;;;;;;1.90;1.10;;;14.20;1.00;;;;;;5091316;28;20172;-72
2023/10/30 08:25:45;;;;;;;3.67;1.70;;;14.30;1.00;;;;;;5098107;28;20717;-70
2023/10/30 08:28:10;;;;;;;1.97;1.07;;;14.20;1.00;;;;;;5090440;28;20226;-69
2023/10/30 08:30:36;;;;;;;1.53;1.20;;;14.30;1.00;;;;;;5095477;28;20950;-70
2023/10/30 08:33:04;;;;;;;1.40;1.00;;;14.30;1.00;;;;;;5093077;28;20191;-71
2023/10/30 08:35:32;;;;;;;2.70;1.23;;;;;;;;;;5103099;28;20444;-72
2023/10/30 08:37:57;;;;;;;2.30;1.07;;;14.30;1.00;;;;;;5093093;28;20472;-72
2023/10/30 08:40:23;;;;;;;1.30;1.00;;;14.30;1.00;;;;;;5093547;28;20935;-71
2023/10/30 08:42:49;;;;;;;5.23;1.30;;;14.60;1.00;;;;;;5090139;28;20658;-71
2023/10/30 08:45:15;;;;;;;2.33;1.10;;;15.00;1.00;;;;;;5093224;28;20444;-71
2023/10/30 08:47:40;;;;;;;2.63;1.00;;;15.50;1.00;;;;;;5090056;28;20292;-70
2023/10/30 08:50:08;;;;;;;2.30;1.40;;;15.80;1.00;;;;;;5092732;28;20737;-71
2023/10/30 08:52:34;;;;;;;2.17;1.00;;;15.80;1.00;;;;;;5095989;28;20190;-73
2023/10/30 08:54:59;;;;;;;2.97;1.30;;;16.90;1.00;;;;;;5090908;28;20440;-71
2023/10/30 08:57:25;;;;;;;2.50;1.40;;;18.50;1.00;;;;;;5087815;28;20319;-69
2023/10/30 08:59:50;;;;;;;2.40;1.20;;;19.30;1.00;;;;;;5090274;28;20191;-71
2023/10/30 09:02:16;;;;;;;3.27;1.50;;;19.60;1.00;;;;;;5095672;28;20670;-71
2023/10/30 09:04:42;;;;;;;4.40;1.33;;;;;;;;;;5102515;28;20253;-68
2023/10/30 09:07:08;;;;;;;3.47;1.40;;;20.70;1.00;;;;;;5098239;28;20664;-71
2023/10/30 09:09:33;;;;;;;2.67;1.40;;;22.00;1.00;;;;;;5099922;28;20201;-71
2023/10/30 09:11:59;;;;;;;4.37;1.50;;;23.00;1.00;;;;;;5101686;28;20189;-72
2023/10/30 09:14:24;;;;;;;3.27;1.47;;;24.00;1.00;;;;;;5105667;28;20548;-74
2023/10/30 09:16:51;;;;;;;5.17;1.30;;;24.80;1.00;;;;;;5108192;28;20245;-72
2023/10/30 09:19:16;;;;;;;5.57;1.50;;;23.90;1.00;;;;;;5093748;28;20171;-73
2023/10/30 09:21:42;;;;;;;4.40;1.10;;;;;;;;;;5097693;28;20522;-73
2023/10/30 09:24:08;;;;;;;5.23;1.60;;;;;;;;;;5104061;28;20183;-71
2023/10/30 09:26:34;;;;;;;3.37;1.50;;;24.00;1.00;;;;;;5096651;28;20195;-72
2023/10/30 09:28:59;;;;;;;3.27;1.27;;;25.30;1.00;;;;;;5099471;28;20455;-74
2023/10/30 09:31:25;;;;;;;4.27;1.50;;;26.10;1.00;;;;;;5098832;28;20179;-71
2023/10/30 09:33:50;;;;;;;3.30;1.27;;;25.70;1.00;;;;;;5092940;28;20552;-70
2023/10/30 09:36:16;;;;;;;4.13;1.50;;;22.20;1.00;;;;;;5095842;28;20577;-71
2023/10/30 09:38:41;;;;;;;2.53;1.20;;;23.50;1.00;;;;;;5092320;28;20179;-72
2023/10/30 09:41:10;;;;;;;3.73;1.50;;;22.50;1.00;;;;;;5097138;28;20822;-72
2023/10/30 09:43:37;;;;;;;2.50;1.10;;;22.50;1.00;;;;;;5100407;28;20661;-72
2023/10/30 09:46:06;;;;;;;2.50;1.20;;;25.10;1.00;;;;;;5108312;28;20436;-72
2023/10/30 09:48:32;;;;;;;2.40;1.10;;;25.00;1.00;;;;;;5100427;28;20878;-71
2023/10/30 09:50:58;;;;;;;2.80;1.10;;;24.10;1.00;;;;;;5100681;28;20932;-70
2023/10/30 09:53:25;;;;;;;3.40;1.23;;;22.60;1.00;;;;;;5100009;28;20203;-71
2023/10/30 09:55:54;;;;;;;3.90;1.40;;;21.30;1.00;;;;;;5095826;28;20461;-72
2023/10/30 09:58:22;;;;;;;4.20;1.20;;;20.80;1.00;;;;;;5090620;28;20474;-73
2023/10/30 10:00:48;;;;;;;2.80;1.30;;;20.60;1.00;;;;;;5094683;28;20433;-74
2023/10/30 10:03:14;;;;;;;2.60;1.20;;;20.30;1.00;;;;;;5099154;28;20471;-77
2023/10/30 10:05:40;;;;;;;3.03;1.40;;;19.70;1.00;;;;;;5103665;28;20202;-76
2023/10/30 10:08:05;;;;;;;2.77;1.30;;;19.20;1.00;;;;;;5092571;28;20682;-78
2023/10/30 10:10:53;;;;;;;3.07;1.50;;;18.90;1.00;;;;;;5097237;28;20176;-74
2023/10/30 10:13:18;;;;;;;3.10;1.33;;;18.40;1.00;;;;;;5092983;28;20258;-76
2023/10/30 10:15:44;;;;;;;2.50;1.30;;;18.00;1.00;;;;;;5091967;28;20550;-76
2023/10/30 10:18:26;;;;;;;2.50;1.30;;;17.80;1.00;;;;;;5101484;28;20201;-76
2023/10/30 10:20:59;;;;;;;2.77;1.40;;;17.70;1.00;;;;;;5096976;28;20228;-77
2023/10/30 10:23:25;;;;;;;3.07;1.80;;;17.40;1.00;;;;;;5097461;28;20999;-76
2023/10/30 10:26:03;;;;;;;2.43;1.37;;;17.20;1.00;;;;;;5097907;28;20428;-76
2023/10/30 10:28:29;;;;;;;2.53;1.37;;;17.00;1.00;;;;;;5096768;28;21124;-77
2023/10/30 10:30:54;;;;;;;2.63;1.63;;;16.90;1.00;;;;;;5096739;28;20430;-77
2023/10/30 10:33:21;;;;;;;7.77;4.43;;;16.90;1.00;;;;;;5091515;28;20806;-75
2023/10/30 10:35:52;;;;;;;4.17;2.70;;;17.10;1.00;;;;;;5096301;28;20716;-77
2023/10/30 10:38:18;;;;;;;2.23;1.30;;;17.30;1.00;;;;;;5095293;28;20520;-75
2023/10/30 10:40:46;;;;;;;2.30;1.40;;;17.50;1.00;;;;;;5088188;28;20491;-76
2023/10/30 10:43:14;;;;;;;2.97;2.10;;;17.70;1.00;;;;;;5094120;28;20483;-78
2023/10/30 10:45:41;;;;;;;2.33;1.37;;;17.80;1.00;;;;;;5093656;28;20465;-76
2023/10/30 10:48:07;;;;;;;2.70;1.30;;;18.30;1.00;;;;;;5099442;28;21047;-77
2023/10/30 10:50:34;;;;;;;2.87;1.73;;;18.70;1.00;;;;;;5098933;28;20516;-75
2023/10/30 10:53:03;;;;;;;7.47;1.70;;;18.70;1.00;;;;;;5091389;28;20550;-76
2023/10/30 10:55:33;;;;;;;3.23;1.40;;;18.50;1.00;;;;;;5093708;28;20485;-74
2023/10/30 10:58:07;;;;;;;2.30;1.20;;;18.20;1.00;;;;;;5089596;28;20818;-74
2023/10/30 11:00:37;;;;;;;3.73;1.40;;;18.50;1.00;;;;;;5098793;28;20935;-76
2023/10/30 11:03:06;;;;;;;3.33;1.20;;;18.90;1.00;;;;;;5096687;28;20422;-73
2023/10/30 11:05:34;;;;;;;2.90;1.40;;;19.50;1.00;;;;;;5096703;28;20418;-77
2023/10/30 11:08:12;;;;;;;3.03;1.20;;;19.70;1.00;;;;;;5095686;28;20840;-75
2023/10/30 11:10:47;;;;;;;3.13;1.50;;;19.70;1.00;;;;;;5098030;28;20425;-75
2023/10/30 11:13:24;;;;;;;5.30;1.30;;;19.60;1.00;;;;;;5094329;28;20478;-75
2023/10/30 11:16:11;;;;;;;2.83;1.30;;;19.10;1.00;;;;;;5094981;28;20545;-74
2023/10/30 11:18:38;;;;;;;2.47;1.17;;;18.70;1.00;;;;;;5095084;28;20563;-75
2023/10/30 11:21:16;;;;;;;2.40;1.23;;;18.60;1.00;;;;;;5093903;28;20876;-77
2023/10/30 11:23:44;;;;;;;3.47;1.40;;;18.20;1.00;;;;;;5094113;28;20951;-76
2023/10/30 11:26:30;;;;;;;2.37;1.20;;;18.00;1.00;;;;;;5092608;28;20524;-74
2023/10/30 11:28:57;;;;;;;2.53;1.30;;;17.90;1.00;;;;;;5084582;28;20491;-77
2023/10/30 11:31:22;;;;;;;2.50;1.37;;;17.70;1.00;;;;;;5093076;28;21034;-76
2023/10/30 11:33:49;;;;;;;1.93;1.20;;;17.70;1.00;;;;;;5099761;28;20509;-77
2023/10/30 11:36:19;;;;;;;3.00;1.40;;;17.50;1.00;;;;;;5093764;28;20203;-76
2023/10/30 11:39:09;;;;;;;2.40;1.27;;;17.50;1.00;;;;;;5094769;28;20453;-75
2023/10/30 11:41:40;;;;;;;3.73;1.07;;;17.50;1.00;;;;;;5085398;28;20586;-77
2023/10/30 11:44:16;;;;;;;2.63;1.40;;;17.50;1.00;;;;;;5093472;28;20883;-75
2023/10/30 11:46:44;;;;;;;1.90;1.20;;;17.50;1.00;;;;;;5097969;28;20528;-77
2023/10/30 11:49:11;;;;;;;2.47;1.30;;;17.50;1.00;;;;;;5101539;28;20454;-76
2023/10/30 11:51:42;;;;;;;2.17;1.30;;;17.40;1.00;;;;;;5094916;28;20783;-77
2023/10/30 11:54:08;;;;;;;5.83;1.43;;;17.40;1.00;;;;;;5101024;28;20429;-77
2023/10/30 11:56:33;;;;;;;7.50;1.57;;;17.30;1.00;;;;;;5102987;28;20470;-76
2023/10/30 11:58:59;;;;;;;2.37;1.47;;;17.30;1.00;;;;;;5096762;28;20489;-73
2023/10/30 12:01:25;;;;;;;2.53;1.60;;;17.20;1.00;;;;;;5103202;28;20266;-74
2023/10/30 12:03:51;;;;;;;2.30;1.40;;;17.20;1.00;;;;;;5094228;28;20180;-75
2023/10/30 12:06:16;;;;;;;3.20;1.47;;;17.20;1.00;;;;;;5102251;28;20184;-78
2023/10/30 12:08:42;;;;;;;2.03;1.13;;;17.20;1.00;;;;;;5094027;28;20179;-76
2023/10/30 12:11:08;;;;;;;1.77;1.20;;;17.30;1.00;;;;;;5091793;28;20685;-76
2023/10/30 12:13:34;;;;;;;1.50;1.10;;;17.40;1.00;;;;;;5095854;28;20477;-74
2023/10/30 12:16:00;;;;;;;1.53;1.20;;;17.60;1.00;;;;;;5091493;28;20250;-74
2023/10/30 12:18:26;;;;;;;5.00;1.40;;;17.50;1.00;;;;;;5095010;28;20934;-76
2023/10/30 12:20:52;;;;;;;2.93;1.40;;;17.60;1.00;;;;;;5100364;28;20176;-77
2023/10/30 12:23:17;;;;;;;2.93;1.50;;;17.70;1.00;;;;;;5091083;28;20842;-76
2023/10/30 12:25:44;;;;;;;2.83;1.27;;;17.80;1.00;;;;;;5098635;28;20263;-76
2023/10/30 12:28:09;;;;;;;2.73;1.40;;;18.00;1.00;;;;;;5099738;28;20691;-79
2023/10/30 12:30:35;;;;;;;3.20;1.30;;;18.00;1.00;;;;;;5095162;28;20438;-76
2023/10/30 12:33:01;;;;;;;2.40;1.47;;;18.10;1.00;;;;;;5094782;28;20206;-76
2023/10/30 12:35:27;;;;;;;3.37;1.37;;;18.00;1.00;;;;;;5092662;28;20500;-74
2023/10/30 12:37:52;;;;;;;3.90;1.20;;;18.00;1.00;;;;;;5095786;28;20238;-73
2023/10/30 12:40:18;;;;;;;2.23;1.23;;;18.10;1.00;;;;;;5103356;27;20182;-75
2023/10/30 12:42:46;;;;;;;3.17;1.30;;;18.10;1.00;;;;;;5101208;28;20600;-75
2023/10/30 12:45:17;;;;;;;2.40;1.30;;;18.20;1.00;;;;;;5092630;28;20205;-75
2023/10/30 12:47:45;;;;;;;1.93;1.20;;;18.20;1.00;;;;;;5101385;28;20493;-76
2023/10/30 12:50:12;;;;;;;3.10;1.60;;;18.20;1.00;;;;;;5097087;28;20489;-77
2023/10/30 12:52:38;;;;;;;3.27;1.77;;;18.10;1.00;;;;;;5093616;28;20438;-75
2023/10/30 12:55:04;;;;;;;2.00;1.20;;;18.20;1.00;;;;;;5096081;28;20428;-79